Terminal Aerodrome Forecast
Issued by NWS Grand Rapids, MI

Home | Current Version | Previous Version | Text Only | Print | Product List | Glossary On
Versions: 1 2 3 4 5 6 7 8 9 10 11 12 13 14 15 16 17 18 19 20 21 22 23 24
000
FTUS43 KGRR 022300
TAFGRR
TAF
KGRR 022340Z 0300/0324 25005KT P6SM SCT150
     FM030600 15007KT P6SM OVC100
     FM031400 14010KT 2SM -SN BR OVC050
     FM031600 15015G23KT 3/4SM -SN BR OVC008=

USA.gov is the U.S. government's official web portal to all federal, state and local government web resources and services.